Terminal Aerodrome Forecast
Issued by NWS Blacksburg, VA

Current Version | Previous Version | Text Only | Print | Product List | Glossary Off
Versions: 1 2 3 4 5 6 7 8 9 10 11 12 13 14 15 16 17 18 19

000
FTUS41 KRNK 221130
TAFBLF
TAF
KBLF 221130Z 2212/2312 19006KT P6SM SCT018 BKN150
      TEMPO 2212/2215 BKN018
     FM221500 23009G18KT P6SM VCSH SCT020 OVC045
     FM222200 26006KT P6SM BKN050
     FM230300 VRB04KT 6SM -DZ BR OVC015=

USA.gov is the U.S. government's official web portal to all federal, state and local government web resources and services.